sensor_id;sensor_type;location;lat;lon;timestamp;temperature;humidity
9987;DHT22;5033;46.310;11.214;2023-06-10T00:00:18;20.00;99.90
9987;DHT22;5033;46.310;11.214;2023-06-10T00:02:47;20.00;99.90
9987;DHT22;5033;46.310;11.214;2023-06-10T00:05:14;20.00;99.90
9987;DHT22;5033;46.310;11.214;2023-06-10T00:07:42;20.00;99.90
9987;DHT22;5033;46.310;11.214;2023-06-10T00:10:11;20.00;99.90
9987;DHT22;5033;46.310;11.214;2023-06-10T00:12:38;20.00;99.90
9987;DHT22;5033;46.310;11.214;2023-06-10T00:15:08;20.10;99.90
9987;DHT22;5033;46.310;11.214;2023-06-10T00:17:35;20.10;99.90
9987;DHT22;5033;46.310;11.214;2023-06-10T00:20:07;20.10;99.90
9987;DHT22;5033;46.310;11.214;2023-06-10T00:22:37;20.10;99.90
9987;DHT22;5033;46.310;11.214;2023-06-10T00:25:05;20.10;99.90
9987;DHT22;5033;46.310;11.214;2023-06-10T00:27:32;20.10;99.90
9987;DHT22;5033;46.310;11.214;2023-06-10T00:30:01;20.00;99.90
9987;DHT22;5033;46.310;11.214;2023-06-10T00:32:30;20.00;99.90
9987;DHT22;5033;46.310;11.214;2023-06-10T00:34:57;20.00;99.90
9987;DHT22;5033;46.310;11.214;2023-06-10T00:37:26;19.90;99.90
9987;DHT22;5033;46.310;11.214;2023-06-10T00:39:54;19.90;99.90
9987;DHT22;5033;46.310;11.214;2023-06-10T00:42:21;19.90;99.90
9987;DHT22;5033;46.310;11.214;2023-06-10T00:44:49;19.90;99.90
9987;DHT22;5033;46.310;11.214;2023-06-10T00:47:18;19.90;99.90
9987;DHT22;5033;46.310;11.214;2023-06-10T00:49:46;19.90;99.90
9987;DHT22;5033;46.310;11.214;2023-06-10T00:52:14;20.00;99.90
9987;DHT22;5033;46.310;11.214;2023-06-10T00:54:43;20.00;99.90
9987;DHT22;5033;46.310;11.214;2023-06-10T00:57:12;20.00;99.90
9987;DHT22;5033;46.310;11.214;2023-06-10T00:59:40;20.00;99.90
9987;DHT22;5033;46.310;11.214;2023-06-10T01:02:07;20.00;99.90
9987;DHT22;5033;46.310;11.214;2023-06-10T01:04:35;19.90;99.90
9987;DHT22;5033;46.310;11.214;2023-06-10T01:07:09;20.00;99.90
9987;DHT22;5033;46.310;11.214;2023-06-10T01:09:44;20.00;99.90
9987;DHT22;5033;46.310;11.214;2023-06-10T01:12:16;20.00;99.90
9987;DHT22;5033;46.310;11.214;2023-06-10T01:14:46;20.00;99.90
9987;DHT22;5033;46.310;11.214;2023-06-10T01:17:14;19.90;99.90
9987;DHT22;5033;46.310;11.214;2023-06-10T01:19:44;19.90;99.90
9987;DHT22;5033;46.310;11.214;2023-06-10T01:22:12;19.90;99.90
9987;DHT22;5033;46.310;11.214;2023-06-10T01:24:41;19.80;99.90
9987;DHT22;5033;46.310;11.214;2023-06-10T01:27:12;19.80;99.90
9987;DHT22;5033;46.310;11.214;2023-06-10T01:29:43;19.70;99.90
9987;DHT22;5033;46.310;11.214;2023-06-10T01:32:17;19.70;99.90
9987;DHT22;5033;46.310;11.214;2023-06-10T01:34:45;19.70;99.90
9987;DHT22;5033;46.310;11.214;2023-06-10T01:37:17;19.70;99.90
9987;DHT22;5033;46.310;11.214;2023-06-10T01:39:45;19.70;99.90
9987;DHT22;5033;46.310;11.214;2023-06-10T01:42:13;19.70;99.90
9987;DHT22;5033;46.310;11.214;2023-06-10T01:44:41;19.70;99.90
9987;DHT22;5033;46.310;11.214;2023-06-10T01:47:08;19.70;99.90
9987;DHT22;5033;46.310;11.214;2023-06-10T01:49:35;19.70;99.90
9987;DHT22;5033;46.310;11.214;2023-06-10T01:52:03;19.70;99.90
9987;DHT22;5033;46.310;11.214;2023-06-10T01:54:31;19.80;99.90
9987;DHT22;5033;46.310;11.214;2023-06-10T01:57:00;19.70;99.90
9987;DHT22;5033;46.310;11.214;2023-06-10T01:59:28;19.80;99.90
9987;DHT22;5033;46.310;11.214;2023-06-10T02:01:55;19.70;99.90
9987;DHT22;5033;46.310;11.214;2023-06-10T02:04:23;19.70;99.90
9987;DHT22;5033;46.310;11.214;2023-06-10T02:06:51;19.70;99.90
9987;DHT22;5033;46.310;11.214;2023-06-10T02:09:18;19.60;99.90
9987;DHT22;5033;46.310;11.214;2023-06-10T02:11:47;19.60;99.90
9987;DHT22;5033;46.310;11.214;2023-06-10T02:14:14;19.50;99.90
9987;DHT22;5033;46.310;11.214;2023-06-10T02:16:41;19.40;99.90
9987;DHT22;5033;46.310;11.214;2023-06-10T02:19:12;19.30;99.90
9987;DHT22;5033;46.310;11.214;2023-06-10T02:21:39;19.20;99.90
9987;DHT22;5033;46.310;11.214;2023-06-10T02:24:07;19.20;99.90
9987;DHT22;5033;46.310;11.214;2023-06-10T02:26:34;19.30;99.90
9987;DHT22;5033;46.310;11.214;2023-06-10T02:29:03;19.30;99.90
9987;DHT22;5033;46.310;11.214;2023-06-10T02:31:31;19.30;99.90
9987;DHT22;5033;46.310;11.214;2023-06-10T02:34:01;19.30;99.90
9987;DHT22;5033;46.310;11.214;2023-06-10T02:36:28;19.30;99.90
9987;DHT22;5033;46.310;11.214;2023-06-10T02:38:55;19.40;99.90
9987;DHT22;5033;46.310;11.214;2023-06-10T02:41:22;19.40;99.90
9987;DHT22;5033;46.310;11.214;2023-06-10T02:43:50;19.40;99.90
9987;DHT22;5033;46.310;11.214;2023-06-10T02:46:19;19.30;99.90
9987;DHT22;5033;46.310;11.214;2023-06-10T02:48:46;19.30;99.90
9987;DHT22;5033;46.310;11.214;2023-06-10T02:51:15;19.30;99.90
9987;DHT22;5033;46.310;11.214;2023-06-10T02:53:42;19.30;99.90
9987;DHT22;5033;46.310;11.214;2023-06-10T02:56:09;19.30;99.90
9987;DHT22;5033;46.310;11.214;2023-06-10T02:58:37;19.30;99.90
9987;DHT22;5033;46.310;11.214;2023-06-10T03:01:04;19.30;99.90
9987;DHT22;5033;46.310;11.214;2023-06-10T03:03:33;19.30;99.90
9987;DHT22;5033;46.310;11.214;2023-06-10T03:06:02;19.20;99.90
9987;DHT22;5033;46.310;11.214;2023-06-10T03:08:29;19.20;99.90
9987;DHT22;5033;46.310;11.214;2023-06-10T03:10:57;19.20;99.90
9987;DHT22;5033;46.310;11.214;2023-06-10T03:13:24;19.20;99.90
9987;DHT22;5033;46.310;11.214;2023-06-10T03:15:51;19.20;99.90
9987;DHT22;5033;46.310;11.214;2023-06-10T03:18:18;19.20;99.90
9987;DHT22;5033;46.310;11.214;2023-06-10T03:20:47;19.20;99.90
9987;DHT22;5033;46.310;11.214;2023-06-10T03:23:15;19.20;99.90
9987;DHT22;5033;46.310;11.214;2023-06-10T03:25:42;19.20;99.90
9987;DHT22;5033;46.310;11.214;2023-06-10T03:28:10;19.20;99.90
9987;DHT22;5033;46.310;11.214;2023-06-10T03:30:37;19.20;99.90
9987;DHT22;5033;46.310;11.214;2023-06-10T03:33:04;19.20;99.90
9987;DHT22;5033;46.310;11.214;2023-06-10T03:35:31;19.20;99.90
9987;DHT22;5033;46.310;11.214;2023-06-10T03:38:01;19.20;99.90
9987;DHT22;5033;46.310;11.214;2023-06-10T03:40:29;19.20;99.90
9987;DHT22;5033;46.310;11.214;2023-06-10T03:42:57;19.10;99.90
9987;DHT22;5033;46.310;11.214;2023-06-10T03:45:24;19.10;99.90
9987;DHT22;5033;46.310;11.214;2023-06-10T03:47:53;19.10;99.90
9987;DHT22;5033;46.310;11.214;2023-06-10T03:50:21;19.10;99.90
9987;DHT22;5033;46.310;11.214;2023-06-10T03:52:50;19.10;99.90
9987;DHT22;5033;46.310;11.214;2023-06-10T03:55:18;19.10;99.90
9987;DHT22;5033;46.310;11.214;2023-06-10T03:57:47;19.10;99.90
9987;DHT22;5033;46.310;11.214;2023-06-10T04:00:15;19.20;99.90
9987;DHT22;5033;46.310;11.214;2023-06-10T04:02:43;19.20;99.90
9987;DHT22;5033;46.310;11.214;2023-06-10T04:05:14;19.20;99.90
9987;DHT22;5033;46.310;11.214;2023-06-10T04:07:42;19.20;99.90
9987;DHT22;5033;46.310;11.214;2023-06-10T04:10:10;19.20;99.90
9987;DHT22;5033;46.310;11.214;2023-06-10T04:12:38;19.20;99.90
9987;DHT22;5033;46.310;11.214;2023-06-10T04:15:06;19.20;99.90
9987;DHT22;5033;46.310;11.214;2023-06-10T04:17:34;19.20;99.90
9987;DHT22;5033;46.310;11.214;2023-06-10T04:20:01;19.20;99.90
9987;DHT22;5033;46.310;11.214;2023-06-10T04:22:32;19.20;99.90
9987;DHT22;5033;46.310;11.214;2023-06-10T04:24:59;19.20;99.90
9987;DHT22;5033;46.310;11.214;2023-06-10T04:27:26;19.20;99.90
9987;DHT22;5033;46.310;11.214;2023-06-10T04:29:55;19.20;99.90
9987;DHT22;5033;46.310;11.214;2023-06-10T04:32:22;19.20;99.90
9987;DHT22;5033;46.310;11.214;2023-06-10T04:34:49;19.20;99.90
9987;DHT22;5033;46.310;11.214;2023-06-10T04:37:16;19.20;99.90
9987;DHT22;5033;46.310;11.214;2023-06-10T04:39:44;19.30;99.90
9987;DHT22;5033;46.310;11.214;2023-06-10T04:42:11;19.30;99.90
9987;DHT22;5033;46.310;11.214;2023-06-10T04:44:38;19.30;99.90
9987;DHT22;5033;46.310;11.214;2023-06-10T04:47:07;19.30;99.90
9987;DHT22;5033;46.310;11.214;2023-06-10T04:49:34;19.40;99.90
9987;DHT22;5033;46.310;11.214;2023-06-10T04:52:02;19.40;99.90
9987;DHT22;5033;46.310;11.214;2023-06-10T04:54:30;19.40;99.90
9987;DHT22;5033;46.310;11.214;2023-06-10T04:56:58;19.50;99.90
9987;DHT22;5033;46.310;11.214;2023-06-10T04:59:25;19.50;99.90
9987;DHT22;5033;46.310;11.214;2023-06-10T05:01:52;19.60;99.90
9987;DHT22;5033;46.310;11.214;2023-06-10T05:04:22;19.80;99.90
9987;DHT22;5033;46.310;11.214;2023-06-10T05:06:49;20.00;99.90
9987;DHT22;5033;46.310;11.214;2023-06-10T05:09:16;20.10;99.90
9987;DHT22;5033;46.310;11.214;2023-06-10T05:11:43;20.30;99.90
9987;DHT22;5033;46.310;11.214;2023-06-10T05:14:10;20.40;99.90
9987;DHT22;5033;46.310;11.214;2023-06-10T05:16:37;20.40;99.90
9987;DHT22;5033;46.310;11.214;2023-06-10T05:19:04;20.50;99.90
9987;DHT22;5033;46.310;11.214;2023-06-10T05:21:33;20.50;99.90
9987;DHT22;5033;46.310;11.214;2023-06-10T05:24:00;20.40;99.90
9987;DHT22;5033;46.310;11.214;2023-06-10T05:26:27;20.40;99.90
9987;DHT22;5033;46.310;11.214;2023-06-10T05:28:57;20.30;99.90
9987;DHT22;5033;46.310;11.214;2023-06-10T05:31:24;20.20;99.90
9987;DHT22;5033;46.310;11.214;2023-06-10T05:33:51;20.10;99.90
9987;DHT22;5033;46.310;11.214;2023-06-10T05:36:18;19.90;99.90
9987;DHT22;5033;46.310;11.214;2023-06-10T05:38:47;19.90;99.90
9987;DHT22;5033;46.310;11.214;2023-06-10T05:41:14;19.90;99.90
9987;DHT22;5033;46.310;11.214;2023-06-10T05:43:41;20.00;99.90
9987;DHT22;5033;46.310;11.214;2023-06-10T05:46:08;20.20;99.90
9987;DHT22;5033;46.310;11.214;2023-06-10T05:48:35;20.20;99.90
9987;DHT22;5033;46.310;11.214;2023-06-10T05:51:02;20.20;99.90
9987;DHT22;5033;46.310;11.214;2023-06-10T05:53:29;20.20;99.90
9987;DHT22;5033;46.310;11.214;2023-06-10T05:55:57;20.20;99.90
9987;DHT22;5033;46.310;11.214;2023-06-10T05:58:24;20.20;99.90
9987;DHT22;5033;46.310;11.214;2023-06-10T06:00:52;20.30;99.90
9987;DHT22;5033;46.310;11.214;2023-06-10T06:03:19;20.30;99.90
9987;DHT22;5033;46.310;11.214;2023-06-10T06:05:46;20.50;99.90
9987;DHT22;5033;46.310;11.214;2023-06-10T06:08:13;20.70;99.90
9987;DHT22;5033;46.310;11.214;2023-06-10T06:10:44;20.80;99.90
9987;DHT22;5033;46.310;11.214;2023-06-10T06:13:13;20.80;99.90
9987;DHT22;5033;46.310;11.214;2023-06-10T06:15:40;20.80;99.90
9987;DHT22;5033;46.310;11.214;2023-06-10T06:18:07;20.80;99.90
9987;DHT22;5033;46.310;11.214;2023-06-10T06:20:34;20.70;99.90
9987;DHT22;5033;46.310;11.214;2023-06-10T06:23:01;20.70;99.90
9987;DHT22;5033;46.310;11.214;2023-06-10T06:25:28;20.80;99.90
9987;DHT22;5033;46.310;11.214;2023-06-10T06:27:55;21.00;99.90
9987;DHT22;5033;46.310;11.214;2023-06-10T06:30:24;21.30;99.90
9987;DHT22;5033;46.310;11.214;2023-06-10T06:32:51;21.40;99.90
9987;DHT22;5033;46.310;11.214;2023-06-10T06:35:19;21.40;99.90
9987;DHT22;5033;46.310;11.214;2023-06-10T06:37:46;21.30;99.90
9987;DHT22;5033;46.310;11.214;2023-06-10T06:40:14;21.20;99.90
9987;DHT22;5033;46.310;11.214;2023-06-10T06:42:43;21.10;99.90
9987;DHT22;5033;46.310;11.214;2023-06-10T06:45:10;21.00;99.90
9987;DHT22;5033;46.310;11.214;2023-06-10T06:47:39;20.90;99.90
9987;DHT22;5033;46.310;11.214;2023-06-10T06:50:07;20.90;99.90
9987;DHT22;5033;46.310;11.214;2023-06-10T06:52:34;21.00;99.90
9987;DHT22;5033;46.310;11.214;2023-06-10T06:55:01;21.20;99.90
9987;DHT22;5033;46.310;11.214;2023-06-10T06:57:28;21.50;99.90
9987;DHT22;5033;46.310;11.214;2023-06-10T06:59:55;21.70;99.90
9987;DHT22;5033;46.310;11.214;2023-06-10T07:02:22;21.90;99.90
9987;DHT22;5033;46.310;11.214;2023-06-10T07:04:51;22.10;99.90
9987;DHT22;5033;46.310;11.214;2023-06-10T07:07:21;22.40;99.90
9987;DHT22;5033;46.310;11.214;2023-06-10T07:09:47;22.40;99.90
9987;DHT22;5033;46.310;11.214;2023-06-10T07:12:15;22.20;99.90
9987;DHT22;5033;46.310;11.214;2023-06-10T07:14:43;22.00;99.90
9987;DHT22;5033;46.310;11.214;2023-06-10T07:17:10;21.90;99.90
9987;DHT22;5033;46.310;11.214;2023-06-10T07:19:37;22.10;99.90
9987;DHT22;5033;46.310;11.214;2023-06-10T07:22:06;22.30;99.90
9987;DHT22;5033;46.310;11.214;2023-06-10T07:24:34;22.40;99.90
9987;DHT22;5033;46.310;11.214;2023-06-10T07:27:01;22.70;99.90
9987;DHT22;5033;46.310;11.214;2023-06-10T07:29:28;23.00;99.90
9987;DHT22;5033;46.310;11.214;2023-06-10T07:31:55;23.20;99.90
9987;DHT22;5033;46.310;11.214;2023-06-10T07:34:22;23.30;99.90
9987;DHT22;5033;46.310;11.214;2023-06-10T07:36:49;23.20;99.90
9987;DHT22;5033;46.310;11.214;2023-06-10T07:39:18;22.90;99.90
9987;DHT22;5033;46.310;11.214;2023-06-10T07:41:45;22.80;99.90
9987;DHT22;5033;46.310;11.214;2023-06-10T07:44:14;22.90;99.90
9987;DHT22;5033;46.310;11.214;2023-06-10T07:46:41;23.30;99.90
9987;DHT22;5033;46.310;11.214;2023-06-10T07:49:08;23.70;99.90
9987;DHT22;5033;46.310;11.214;2023-06-10T07:51:35;23.90;99.90
9987;DHT22;5033;46.310;11.214;2023-06-10T07:54:03;24.10;99.90
9987;DHT22;5033;46.310;11.214;2023-06-10T07:56:32;24.20;99.90
9987;DHT22;5033;46.310;11.214;2023-06-10T07:58:59;24.30;99.90
9987;DHT22;5033;46.310;11.214;2023-06-10T08:01:26;24.60;99.90
9987;DHT22;5033;46.310;11.214;2023-06-10T08:03:55;24.50;99.90
9987;DHT22;5033;46.310;11.214;2023-06-10T08:06:23;24.80;99.90
9987;DHT22;5033;46.310;11.214;2023-06-10T08:08:50;24.60;99.90
9987;DHT22;5033;46.310;11.214;2023-06-10T08:11:17;24.50;99.90
9987;DHT22;5033;46.310;11.214;2023-06-10T08:13:46;24.50;99.90
9987;DHT22;5033;46.310;11.214;2023-06-10T08:16:13;24.80;99.90
9987;DHT22;5033;46.310;11.214;2023-06-10T08:18:40;24.70;99.90
9987;DHT22;5033;46.310;11.214;2023-06-10T08:21:07;24.60;99.90
9987;DHT22;5033;46.310;11.214;2023-06-10T08:23:34;24.70;99.90
9987;DHT22;5033;46.310;11.214;2023-06-10T08:26:02;24.50;99.90
9987;DHT22;5033;46.310;11.214;2023-06-10T08:28:29;24.10;99.90
9987;DHT22;5033;46.310;11.214;2023-06-10T08:30:57;23.90;99.90
9987;DHT22;5033;46.310;11.214;2023-06-10T08:33:24;23.70;99.90
9987;DHT22;5033;46.310;11.214;2023-06-10T08:35:51;23.60;99.90
9987;DHT22;5033;46.310;11.214;2023-06-10T08:38:18;23.70;99.90
9987;DHT22;5033;46.310;11.214;2023-06-10T08:40:46;23.70;99.90
9987;DHT22;5033;46.310;11.214;2023-06-10T08:43:17;23.80;99.90
9987;DHT22;5033;46.310;11.214;2023-06-10T08:45:49;23.70;99.90
9987;DHT22;5033;46.310;11.214;2023-06-10T08:48:19;23.90;99.90
9987;DHT22;5033;46.310;11.214;2023-06-10T08:50:47;24.00;99.90
9987;DHT22;5033;46.310;11.214;2023-06-10T08:53:18;24.10;99.90
9987;DHT22;5033;46.310;11.214;2023-06-10T08:55:49;24.00;99.90
9987;DHT22;5033;46.310;11.214;2023-06-10T08:58:17;24.20;99.90
9987;DHT22;5033;46.310;11.214;2023-06-10T09:00:45;24.70;99.90
9987;DHT22;5033;46.310;11.214;2023-06-10T09:03:12;25.00;99.90
9987;DHT22;5033;46.310;11.214;2023-06-10T09:05:42;25.20;99.90
9987;DHT22;5033;46.310;11.214;2023-06-10T09:08:09;25.50;99.90
9987;DHT22;5033;46.310;11.214;2023-06-10T09:10:38;25.50;99.90
9987;DHT22;5033;46.310;11.214;2023-06-10T09:13:05;25.60;99.90
9987;DHT22;5033;46.310;11.214;2023-06-10T09:15:32;25.80;99.90
9987;DHT22;5033;46.310;11.214;2023-06-10T09:18:00;25.90;99.90
9987;DHT22;5033;46.310;11.214;2023-06-10T09:20:27;25.80;99.90
9987;DHT22;5033;46.310;11.214;2023-06-10T09:22:56;26.00;99.90
9987;DHT22;5033;46.310;11.214;2023-06-10T09:25:35;26.00;99.90
9987;DHT22;5033;46.310;11.214;2023-06-10T09:28:03;25.80;99.90
9987;DHT22;5033;46.310;11.214;2023-06-10T09:30:31;25.70;99.90
9987;DHT22;5033;46.310;11.214;2023-06-10T09:32:59;25.50;99.90
9987;DHT22;5033;46.310;11.214;2023-06-10T09:35:28;25.40;99.90
9987;DHT22;5033;46.310;11.214;2023-06-10T09:37:58;25.60;99.90
9987;DHT22;5033;46.310;11.214;2023-06-10T09:40:26;25.70;99.90
9987;DHT22;5033;46.310;11.214;2023-06-10T09:42:54;25.90;99.90
9987;DHT22;5033;46.310;11.214;2023-06-10T09:45:22;26.00;99.90
9987;DHT22;5033;46.310;11.214;2023-06-10T09:47:52;26.10;99.90
9987;DHT22;5033;46.310;11.214;2023-06-10T09:50:19;26.20;99.90
9987;DHT22;5033;46.310;11.214;2023-06-10T09:52:47;26.20;99.90
9987;DHT22;5033;46.310;11.214;2023-06-10T09:55:17;26.20;99.90
9987;DHT22;5033;46.310;11.214;2023-06-10T09:57:44;26.20;99.90
9987;DHT22;5033;46.310;11.214;2023-06-10T10:00:16;26.30;99.90
9987;DHT22;5033;46.310;11.214;2023-06-10T10:02:47;26.40;99.90
9987;DHT22;5033;46.310;11.214;2023-06-10T10:05:15;26.60;99.90
9987;DHT22;5033;46.310;11.214;2023-06-10T10:07:42;26.50;99.90
9987;DHT22;5033;46.310;11.214;2023-06-10T10:10:10;26.60;99.90
9987;DHT22;5033;46.310;11.214;2023-06-10T10:12:40;26.90;99.90
9987;DHT22;5033;46.310;11.214;2023-06-10T10:15:08;27.10;99.90
9987;DHT22;5033;46.310;11.214;2023-06-10T10:17:39;27.10;99.90
9987;DHT22;5033;46.310;11.214;2023-06-10T10:20:08;27.00;99.90
9987;DHT22;5033;46.310;11.214;2023-06-10T10:22:41;26.90;99.90
9987;DHT22;5033;46.310;11.214;2023-06-10T10:25:11;26.80;99.90
9987;DHT22;5033;46.310;11.214;2023-06-10T10:27:44;26.80;99.90
9987;DHT22;5033;46.310;11.214;2023-06-10T10:30:17;26.90;99.90
9987;DHT22;5033;46.310;11.214;2023-06-10T10:32:54;27.10;99.90
9987;DHT22;5033;46.310;11.214;2023-06-10T10:35:25;27.10;99.90
9987;DHT22;5033;46.310;11.214;2023-06-10T10:37:53;27.10;99.90
9987;DHT22;5033;46.310;11.214;2023-06-10T10:40:21;27.10;99.90
9987;DHT22;5033;46.310;11.214;2023-06-10T10:42:51;27.20;99.90
9987;DHT22;5033;46.310;11.214;2023-06-10T10:45:19;27.30;99.90
9987;DHT22;5033;46.310;11.214;2023-06-10T10:47:52;27.10;99.90
9987;DHT22;5033;46.310;11.214;2023-06-10T10:50:21;27.20;99.90
9987;DHT22;5033;46.310;11.214;2023-06-10T10:52:54;27.00;99.90
9987;DHT22;5033;46.310;11.214;2023-06-10T10:55:21;27.10;99.90
9987;DHT22;5033;46.310;11.214;2023-06-10T10:57:58;27.30;99.90
9987;DHT22;5033;46.310;11.214;2023-06-10T11:00:28;27.50;99.90
9987;DHT22;5033;46.310;11.214;2023-06-10T11:03:04;27.60;99.90
9987;DHT22;5033;46.310;11.214;2023-06-10T11:05:36;28.00;99.90
9987;DHT22;5033;46.310;11.214;2023-06-10T11:08:04;28.40;99.90
9987;DHT22;5033;46.310;11.214;2023-06-10T11:10:33;28.50;99.90
9987;DHT22;5033;46.310;11.214;2023-06-10T11:13:06;28.50;99.90
9987;DHT22;5033;46.310;11.214;2023-06-10T11:15:38;28.60;99.90
9987;DHT22;5033;46.310;11.214;2023-06-10T11:18:07;28.60;99.90
9987;DHT22;5033;46.310;11.214;2023-06-10T11:20:45;28.70;99.90
9987;DHT22;5033;46.310;11.214;2023-06-10T11:23:40;28.50;99.90
9987;DHT22;5033;46.310;11.214;2023-06-10T11:26:31;28.80;99.90
9987;DHT22;5033;46.310;11.214;2023-06-10T11:29:08;28.90;99.90
9987;DHT22;5033;46.310;11.214;2023-06-10T11:31:46;28.90;99.90
9987;DHT22;5033;46.310;11.214;2023-06-10T11:34:21;28.90;99.90
9987;DHT22;5033;46.310;11.214;2023-06-10T11:36:50;28.90;99.90
9987;DHT22;5033;46.310;11.214;2023-06-10T11:39:20;28.80;99.90
9987;DHT22;5033;46.310;11.214;2023-06-10T11:41:49;28.60;99.90
9987;DHT22;5033;46.310;11.214;2023-06-10T11:44:18;28.50;99.90
9987;DHT22;5033;46.310;11.214;2023-06-10T11:46:47;28.40;99.90
9987;DHT22;5033;46.310;11.214;2023-06-10T11:49:14;28.50;99.90
9987;DHT22;5033;46.310;11.214;2023-06-10T11:51:42;28.30;99.90
9987;DHT22;5033;46.310;11.214;2023-06-10T11:54:15;28.40;99.90
9987;DHT22;5033;46.310;11.214;2023-06-10T11:56:43;28.50;99.90
9987;DHT22;5033;46.310;11.214;2023-06-10T11:59:10;28.60;99.90
9987;DHT22;5033;46.310;11.214;2023-06-10T12:01:43;28.60;99.90
9987;DHT22;5033;46.310;11.214;2023-06-10T12:04:11;28.70;99.90
9987;DHT22;5033;46.310;11.214;2023-06-10T12:06:41;28.60;99.90
9987;DHT22;5033;46.310;11.214;2023-06-10T12:09:14;28.60;99.90
9987;DHT22;5033;46.310;11.214;2023-06-10T12:11:42;28.70;99.90
9987;DHT22;5033;46.310;11.214;2023-06-10T12:14:10;28.70;99.90
9987;DHT22;5033;46.310;11.214;2023-06-10T12:16:39;28.60;99.90
9987;DHT22;5033;46.310;11.214;2023-06-10T12:19:06;28.50;99.90
9987;DHT22;5033;46.310;11.214;2023-06-10T12:21:37;27.80;99.90
9987;DHT22;5033;46.310;11.214;2023-06-10T12:24:09;27.20;99.90
9987;DHT22;5033;46.310;11.214;2023-06-10T12:26:41;26.80;99.90
9987;DHT22;5033;46.310;11.214;2023-06-10T12:29:21;26.60;99.90
9987;DHT22;5033;46.310;11.214;2023-06-10T12:31:56;26.50;99.90
9987;DHT22;5033;46.310;11.214;2023-06-10T12:34:35;26.40;99.90
9987;DHT22;5033;46.310;11.214;2023-06-10T12:37:03;26.10;99.90
9987;DHT22;5033;46.310;11.214;2023-06-10T12:39:32;26.00;99.90
9987;DHT22;5033;46.310;11.214;2023-06-10T12:42:00;25.80;99.90
9987;DHT22;5033;46.310;11.214;2023-06-10T12:44:31;25.70;99.90
9987;DHT22;5033;46.310;11.214;2023-06-10T12:47:07;25.60;99.90
9987;DHT22;5033;46.310;11.214;2023-06-10T12:49:35;25.40;99.90
9987;DHT22;5033;46.310;11.214;2023-06-10T12:52:03;24.90;99.90
9987;DHT22;5033;46.310;11.214;2023-06-10T12:54:34;24.40;99.90
9987;DHT22;5033;46.310;11.214;2023-06-10T12:57:01;24.00;99.90
9987;DHT22;5033;46.310;11.214;2023-06-10T12:59:28;23.70;99.90
9987;DHT22;5033;46.310;11.214;2023-06-10T13:01:57;23.40;99.90
9987;DHT22;5033;46.310;11.214;2023-06-10T13:04:26;23.30;99.90
9987;DHT22;5033;46.310;11.214;2023-06-10T13:06:54;23.20;99.90
9987;DHT22;5033;46.310;11.214;2023-06-10T13:09:21;23.20;99.90
9987;DHT22;5033;46.310;11.214;2023-06-10T13:11:48;23.10;99.90
9987;DHT22;5033;46.310;11.214;2023-06-10T13:14:15;23.10;99.90
9987;DHT22;5033;46.310;11.214;2023-06-10T13:16:42;23.30;99.90
9987;DHT22;5033;46.310;11.214;2023-06-10T13:19:10;23.50;99.90
9987;DHT22;5033;46.310;11.214;2023-06-10T13:21:39;23.60;99.90
9987;DHT22;5033;46.310;11.214;2023-06-10T13:24:06;23.80;99.90
9987;DHT22;5033;46.310;11.214;2023-06-10T13:26:33;23.80;99.90
9987;DHT22;5033;46.310;11.214;2023-06-10T13:29:01;23.90;99.90
9987;DHT22;5033;46.310;11.214;2023-06-10T13:31:28;24.00;99.90
9987;DHT22;5033;46.310;11.214;2023-06-10T13:33:55;24.00;99.90
9987;DHT22;5033;46.310;11.214;2023-06-10T13:36:24;24.20;99.90
9987;DHT22;5033;46.310;11.214;2023-06-10T13:38:52;24.40;99.90
9987;DHT22;5033;46.310;11.214;2023-06-10T13:41:19;24.70;99.90
9987;DHT22;5033;46.310;11.214;2023-06-10T13:43:46;24.70;99.90
9987;DHT22;5033;46.310;11.214;2023-06-10T13:46:13;25.00;99.90
9987;DHT22;5033;46.310;11.214;2023-06-10T13:48:41;25.40;99.90
9987;DHT22;5033;46.310;11.214;2023-06-10T13:51:08;25.60;99.90
9987;DHT22;5033;46.310;11.214;2023-06-10T13:53:37;25.80;99.90
9987;DHT22;5033;46.310;11.214;2023-06-10T13:56:06;25.60;99.90
9987;DHT22;5033;46.310;11.214;2023-06-10T13:58:33;25.30;99.90
9987;DHT22;5033;46.310;11.214;2023-06-10T14:01:04;25.00;99.90
9987;DHT22;5033;46.310;11.214;2023-06-10T14:03:31;25.10;99.90
9987;DHT22;5033;46.310;11.214;2023-06-10T14:05:59;25.20;99.90
9987;DHT22;5033;46.310;11.214;2023-06-10T14:08:28;25.30;99.90
9987;DHT22;5033;46.310;11.214;2023-06-10T14:10:55;25.40;99.90
9987;DHT22;5033;46.310;11.214;2023-06-10T14:13:24;25.60;99.90
9987;DHT22;5033;46.310;11.214;2023-06-10T14:15:51;25.90;99.90
9987;DHT22;5033;46.310;11.214;2023-06-10T14:18:18;26.10;99.90
9987;DHT22;5033;46.310;11.214;2023-06-10T14:20:45;26.40;99.90
9987;DHT22;5033;46.310;11.214;2023-06-10T14:23:13;26.60;99.90
9987;DHT22;5033;46.310;11.214;2023-06-10T14:25:40;26.70;99.90
9987;DHT22;5033;46.310;11.214;2023-06-10T14:28:07;26.70;99.90
9987;DHT22;5033;46.310;11.214;2023-06-10T14:30:35;26.70;99.90
9987;DHT22;5033;46.310;11.214;2023-06-10T14:33:02;26.70;99.90
9987;DHT22;5033;46.310;11.214;2023-06-10T14:35:30;26.80;99.90
9987;DHT22;5033;46.310;11.214;2023-06-10T14:37:57;26.90;99.90
9987;DHT22;5033;46.310;11.214;2023-06-10T14:40:24;26.90;99.90
9987;DHT22;5033;46.310;11.214;2023-06-10T14:42:54;26.90;99.90
9987;DHT22;5033;46.310;11.214;2023-06-10T14:45:21;26.80;99.90
9987;DHT22;5033;46.310;11.214;2023-06-10T14:47:52;26.90;99.90
9987;DHT22;5033;46.310;11.214;2023-06-10T14:50:19;26.90;99.90
9987;DHT22;5033;46.310;11.214;2023-06-10T14:52:46;26.90;99.90
9987;DHT22;5033;46.310;11.214;2023-06-10T14:55:13;26.70;99.90
9987;DHT22;5033;46.310;11.214;2023-06-10T14:57:41;26.90;99.90
9987;DHT22;5033;46.310;11.214;2023-06-10T15:00:10;26.90;99.90
9987;DHT22;5033;46.310;11.214;2023-06-10T15:02:37;26.80;99.90
9987;DHT22;5033;46.310;11.214;2023-06-10T15:05:07;26.70;99.90
9987;DHT22;5033;46.310;11.214;2023-06-10T15:07:34;26.90;99.90
9987;DHT22;5033;46.310;11.214;2023-06-10T15:10:01;27.10;99.90
9987;DHT22;5033;46.310;11.214;2023-06-10T15:12:28;27.20;99.90
9987;DHT22;5033;46.310;11.214;2023-06-10T15:14:55;27.20;99.90
9987;DHT22;5033;46.310;11.214;2023-06-10T15:17:22;27.20;99.90
9987;DHT22;5033;46.310;11.214;2023-06-10T15:19:49;27.30;99.90
9987;DHT22;5033;46.310;11.214;2023-06-10T15:22:18;27.30;99.90
9987;DHT22;5033;46.310;11.214;2023-06-10T15:24:45;27.30;99.90
9987;DHT22;5033;46.310;11.214;2023-06-10T15:27:12;27.40;99.90
9987;DHT22;5033;46.310;11.214;2023-06-10T15:29:39;27.40;99.90
9987;DHT22;5033;46.310;11.214;2023-06-10T15:32:07;27.40;99.90
9987;DHT22;5033;46.310;11.214;2023-06-10T15:34:34;27.10;99.90
9987;DHT22;5033;46.310;11.214;2023-06-10T15:37:02;26.80;99.90
9987;DHT22;5033;46.310;11.214;2023-06-10T15:39:31;26.80;99.90
9987;DHT22;5033;46.310;11.214;2023-06-10T15:41:58;26.60;99.90
9987;DHT22;5033;46.310;11.214;2023-06-10T15:44:25;26.40;99.90
9987;DHT22;5033;46.310;11.214;2023-06-10T15:46:53;26.20;99.90
9987;DHT22;5033;46.310;11.214;2023-06-10T15:49:20;26.00;99.90
9987;DHT22;5033;46.310;11.214;2023-06-10T15:51:47;25.80;99.90